createdAt,value
2023-05-19T00:09:04.553Z,12.82
2023-05-19T00:14:23.902Z,12.75
2023-05-19T00:19:43.141Z,12.69
2023-05-19T00:25:02.224Z,12.66
2023-05-19T00:30:21.540Z,12.6
2023-05-19T00:35:40.868Z,12.52
2023-05-19T00:46:20.288Z,12.41
2023-05-19T00:51:39.367Z,12.35
2023-05-19T00:56:58.364Z,12.29
2023-05-19T01:02:17.767Z,12.25
2023-05-19T01:07:37.686Z,12.17
2023-05-19T01:12:57.277Z,12.14
2023-05-19T01:18:17.375Z,12.1
2023-05-19T01:23:36.184Z,12.06
2023-05-19T01:30:10.348Z,12.01
2023-05-19T01:34:16.190Z,11.98
2023-05-19T01:39:35.208Z,11.91
2023-05-19T01:44:54.803Z,11.9
2023-05-19T01:50:13.737Z,11.84
2023-05-19T02:00:52.596Z,11.75
2023-05-19T02:06:12.178Z,11.74
2023-05-19T02:11:31.786Z,11.73
2023-05-19T02:16:50.919Z,11.69
2023-05-19T02:22:10.549Z,11.64
2023-05-19T02:27:29.418Z,11.61
2023-05-19T02:32:48.249Z,11.6
2023-05-19T02:43:26.789Z,11.56
2023-05-19T02:54:04.116Z,11.49
2023-05-19T02:59:25.016Z,11.49
2023-05-19T03:04:42.733Z,11.46
2023-05-19T03:10:01.676Z,11.44
2023-05-19T03:15:21.144Z,11.44
2023-05-19T03:25:59.262Z,11.41
2023-05-19T03:31:19.058Z,11.41
2023-05-19T03:36:38.410Z,11.4
2023-05-19T03:41:57.390Z,11.37
2023-05-19T03:47:16.533Z,11.37
2023-05-19T03:52:35.325Z,11.37
2023-05-19T03:57:54.649Z,11.33
2023-05-19T04:03:14.175Z,11.3
2023-05-19T04:08:33.896Z,11.3
2023-05-19T04:19:13.073Z,11.26
2023-05-19T04:24:31.844Z,11.27
2023-05-19T04:29:50.815Z,11.26
2023-05-19T04:35:10.484Z,11.24
2023-05-19T04:45:49.803Z,11.26
2023-05-19T04:51:09.012Z,11.31
2023-05-19T05:01:48.960Z,11.31
2023-05-19T05:07:07.953Z,11.31
2023-05-19T05:12:27.222Z,11.34
2023-05-19T05:17:46.833Z,11.37
2023-05-19T05:23:05.984Z,11.44
2023-05-19T05:28:25.745Z,11.47
2023-05-19T05:33:44.846Z,11.54
2023-05-19T05:44:23.115Z,11.67
2023-05-19T05:49:42.005Z,11.73
2023-05-19T05:55:01.142Z,11.8
2023-05-19T06:00:20.652Z,11.88
2023-05-19T06:05:39.600Z,11.97
2023-05-19T06:10:58.462Z,11.98
2023-05-19T06:16:17.386Z,12.05
2023-05-19T06:21:36.347Z,12.13
2023-05-19T06:28:10.531Z,12.13
2023-05-19T06:32:15.864Z,12.17
2023-05-19T06:42:54.449Z,12.36
2023-05-19T06:48:13.384Z,12.41
2023-05-19T06:53:32.892Z,12.52
2023-05-19T06:58:51.627Z,12.65
2023-05-19T07:04:11.420Z,12.72
2023-05-19T07:12:44.423Z,12.83
2023-05-19T07:14:49.378Z,13.06
2023-05-19T07:25:27.533Z,13.42
2023-05-19T07:30:46.870Z,13.58
2023-05-19T07:36:06.605Z,13.87
2023-05-19T07:41:25.236Z,14.07
2023-05-19T07:46:44.735Z,14.25
2023-05-19T07:52:03.410Z,14.25
2023-05-19T07:57:22.539Z,14.32
2023-05-19T08:08:00.997Z,14.8
2023-05-19T08:13:20.258Z,15.03
2023-05-19T08:18:38.992Z,15.17
2023-05-19T08:23:58.018Z,15.37
2023-05-19T08:29:17.137Z,15.61
2023-05-19T08:34:35.989Z,15.58
2023-05-19T08:39:54.757Z,15.65
2023-05-19T08:50:32.901Z,16.26
2023-05-19T09:01:09.783Z,16.37
2023-05-19T09:06:28.598Z,16.37
2023-05-19T09:11:47.605Z,16.41
2023-05-19T09:17:07.152Z,16.48
2023-05-19T09:22:26.560Z,16.52
2023-05-19T09:27:45.736Z,16.52
2023-05-19T09:33:04.481Z,16.53
2023-05-19T09:38:23.220Z,16.56
2023-05-19T09:43:42.149Z,16.56
2023-05-19T09:49:01.588Z,16.57
2023-05-19T09:59:40.756Z,16.6
2023-05-19T10:05:08.629Z,16.65
2023-05-19T10:10:19.861Z,16.65
2023-05-19T10:15:46.750Z,16.67
2023-05-19T10:26:17.513Z,16.7
2023-05-19T10:31:36.801Z,16.77
2023-05-19T10:36:55.267Z,16.84
2023-05-19T10:42:14.010Z,16.87
2023-05-19T10:47:32.917Z,16.95
2023-05-19T10:52:52.123Z,16.95
2023-05-19T10:58:10.970Z,16.95
2023-05-19T11:08:48.496Z,16.94
2023-05-19T11:19:26.907Z,16.94
2023-05-19T11:24:45.880Z,16.95
2023-05-19T11:30:04.797Z,16.96
2023-05-19T11:35:23.569Z,16.95
2023-05-19T11:40:42.450Z,16.99
2023-05-19T11:46:01.926Z,16.96
2023-05-19T11:51:20.758Z,17.02
2023-05-19T12:01:59.162Z,17.16
2023-05-19T12:07:17.968Z,17.1
2023-05-19T12:12:36.789Z,17.17
2023-05-19T12:17:56.043Z,17.27
2023-05-19T12:23:15.637Z,17.27
2023-05-19T12:28:35.143Z,17.35
2023-05-19T12:33:54.189Z,17.42
2023-05-19T12:39:14.078Z,17.44
2023-05-19T12:49:51.010Z,17.51
2023-05-19T13:00:29.813Z,17.4
2023-05-19T13:05:49.003Z,17.44
2023-05-19T13:16:27.315Z,17.45
2023-05-19T13:21:55.910Z,17.5
2023-05-19T13:32:24.737Z,17.57
2023-05-19T13:37:43.916Z,17.67
2023-05-19T13:43:02.910Z,17.71
2023-05-19T13:48:22.559Z,17.7
2023-05-19T13:53:41.786Z,17.74
2023-05-19T13:59:00.857Z,17.85
2023-05-19T14:04:28.681Z,17.87
2023-05-19T14:14:58.635Z,18.01
2023-05-19T14:30:55.138Z,18.21
2023-05-19T14:36:14.742Z,18.21
2023-05-19T14:41:34.005Z,18.2
2023-05-19T14:46:52.838Z,18.21
2023-05-19T14:52:11.861Z,18.25
2023-05-19T14:57:31.318Z,18.25
2023-05-19T15:02:50.053Z,18.19
2023-05-19T15:13:28.773Z,18.25
2023-05-19T15:18:48.395Z,18.29
2023-05-19T15:24:07.963Z,18.32
2023-05-19T15:29:27.174Z,18.33
2023-05-19T15:34:46.785Z,18.33
2023-05-19T15:40:05.498Z,18.33
2023-05-19T15:45:24.321Z,18.35
2023-05-19T15:50:43.294Z,18.35
2023-05-19T15:56:03.943Z,18.29
2023-05-19T16:01:21.592Z,18.28
2023-05-19T16:06:40.713Z,18.28
2023-05-19T16:12:00.067Z,18.24
2023-05-19T16:17:19.215Z,18.25
2023-05-19T16:22:38.633Z,18.2
2023-05-19T16:27:57.469Z,18.17
2023-05-19T16:33:17.114Z,18.15
2023-05-19T16:38:35.987Z,18.09
2023-05-19T16:49:13.604Z,18.09
2023-05-19T16:59:51.569Z,18.04
2023-05-19T17:05:10.682Z,17.95
2023-05-19T17:15:49.785Z,17.91
2023-05-19T17:21:08.581Z,17.91
2023-05-19T17:26:27.482Z,17.86
2023-05-19T17:31:46.230Z,17.81
2023-05-19T17:42:24.869Z,17.77
2023-05-19T17:53:27.741Z,17.67
2023-05-19T17:58:46.919Z,17.64
2023-05-19T18:04:06.479Z,17.54
2023-05-19T18:09:35.177Z,17.52
2023-05-19T18:14:52.559Z,17.46
2023-05-19T18:20:03.548Z,17.42
2023-05-19T18:25:22.770Z,17.34
2023-05-19T18:30:41.640Z,17.29
2023-05-19T18:36:00.668Z,17.26
2023-05-19T18:46:38.461Z,17.14
2023-05-19T18:51:57.465Z,17.1
2023-05-19T18:57:16.290Z,17.02
2023-05-19T19:02:35.516Z,16.96
2023-05-19T19:07:54.557Z,16.91
2023-05-19T19:13:14.071Z,16.87
2023-05-19T19:18:33.791Z,16.83
2023-05-19T19:29:12.149Z,16.73
2023-05-19T19:39:50.658Z,16.62
2023-05-19T19:45:09.492Z,16.53
2023-05-19T19:50:28.667Z,16.51
2023-05-19T19:55:48.280Z,16.43
2023-05-19T20:01:07.733Z,16.39
2023-05-19T20:06:26.432Z,16.35
2023-05-19T20:11:45.261Z,16.29
2023-05-19T20:17:14.777Z,16.25
2023-05-19T20:22:23.801Z,16.19
2023-05-19T20:27:43.074Z,16.12
2023-05-19T20:33:02.483Z,16.09
2023-05-19T20:38:21.925Z,16.04
2023-05-19T20:43:41.229Z,15.97
2023-05-19T20:49:00.540Z,15.91
2023-05-19T20:54:19.377Z,15.87
2023-05-19T20:59:38.841Z,15.78
2023-05-19T21:10:16.996Z,15.72
2023-05-19T21:15:35.877Z,15.69
2023-05-19T21:20:55.019Z,15.62
2023-05-19T21:26:24.270Z,15.59
2023-05-19T21:31:33.457Z,15.55
2023-05-19T21:36:52.278Z,15.53
2023-05-19T21:42:11.183Z,15.53
2023-05-19T21:52:49.284Z,15.44
2023-05-19T21:58:08.536Z,15.43
2023-05-19T22:03:28.051Z,15.4
2023-05-19T22:08:47.112Z,15.37
2023-05-19T22:14:06.579Z,15.31
2023-05-19T22:19:26.327Z,15.27
2023-05-19T22:24:45.328Z,15.23
2023-05-19T22:30:04.688Z,15.16
2023-05-19T22:35:23.961Z,15.08
2023-05-19T22:40:43.608Z,15.07
2023-05-19T22:46:03.164Z,15.03
2023-05-19T22:51:23.352Z,14.99
2023-05-19T22:56:44.294Z,14.89
2023-05-19T23:02:01.996Z,14.84
2023-05-19T23:07:21.739Z,14.77
2023-05-19T23:12:40.490Z,14.76
2023-05-19T23:17:59.880Z,14.69
2023-05-19T23:23:19.439Z,14.66
2023-05-19T23:33:58.144Z,14.52
2023-05-19T23:39:17.261Z,14.46
2023-05-19T23:44:36.380Z,14.38
2023-05-19T23:49:55.691Z,14.33
2023-05-19T23:55:14.507Z,14.31
